Alpine Village, Colorado
Current Conditions -  °F | °C
As of 11:54 PM on Thursday 27 Nov 2014 (Local Time) from K7BM Reporting Station
Clear Clear  
Wind Chill: 35°   Ceiling: Unl
Heat Index: 45°   Visibility: 10mi
Dew Point:   Wind: 28mph
Humidity: 17%   Direction: 280°W
Pressure: 30.27"   Gusts: 49mph
Location:  38.7194°N, 106.276°W
Report Text: K7BM 280654Z AUTO 28024G43KT 250V320 10SM CLR 07/M17 A3027 RMK AO2
Loading
Personal Weather Stations






























Interactive Weather Map New forecast layout! Learn more

10-Day Weather Forecast

Advertisements
Track Severe Weather on mobile